Bert Mooney Airport
KBTM : now visible

Airfield :











YOU CAN JOIN US ON...

 
LOGIN :

Register | Disclaimer

   EN    FR    IT 

 









Legend :    VFR   Marginal VFR   IFR   Intensive IFR   Very Intensive IFR
Visi :
Ceiling :
>= 8 km
>= 3000ft
5 to 8 km
1000 to 3000 ft
1500m to 5 km
500 to 1000 ft
800 to 1500m
200 to 500 ft
< 800m
< 200 ft
Symbols :   Thunderstorms  Fog  Heavy snow  Heavy precipitations  Wind > 20 kt






- Airport Elevation : 5550 ft
- IATA code : BTM


KBTM - Bert Mooney

CURRENT METAR :
  • 202153Z AUTO 03009KT 10SM SCT037 OVC050 15/06 A3024 RMK AO2 SLP207 T01500061

EXPIRED METARs :
  • 202053Z AUTO 30005KT 10SM FEW025 BKN035 OVC046 13/08 A3023 RMK AO2 SLP204 60007 T01330078 51005
  • 202018Z AUTO 31008KT 10SM FEW020 BKN028 OVC038 13/08 A3023 RMK AO2 T01280083
  • 201953Z AUTO 28010KT 10SM FEW030 BKN042 OVC065 12/09 A3023 RMK AO2 RAE45 SLP205 P0000 T01220089

TAF KBTM
Valid from the 20 at 20:00 until the 21 at 18:00 UTC


202008Z 2020/2118 31011KT P6SM BKN050
FM210000 34009KT P6SM SCT100
FM210200 14007KT P6SM SKC
KZLC FIR / North America



MET'MAP, your aeronautical weather chart ! - Copyright ORBIFLY December 2007 - Disclaimer

ORBIFLY MET'MAP TEAM :

Programming & Development : Alexandra Zaïnal
Concept & original design : Baudouin d'Aumeries
Assistance for programming : Marc-Olivier Méhu
Technical & hardware support : Manuel Goepfert

Contact : metmap@orbifly.com




SOURCES & CREDITS :

   NOAA       Earth
Advisory